sensor_id;sensor_type;location;lat;lon;timestamp;P1;durP1;ratioP1;P2;durP2;ratioP2
19151;SDS011;9708;53.114;9.388;2023-04-24T00:02:22;4.33;;;2.70;;
19151;SDS011;9708;53.114;9.388;2023-04-24T00:04:50;2.37;;;1.83;;
19151;SDS011;9708;53.114;9.388;2023-04-24T00:07:17;2.67;;;2.47;;
19151;SDS011;9708;53.114;9.388;2023-04-24T00:09:45;2.57;;;1.87;;
19151;SDS011;9708;53.114;9.388;2023-04-24T00:12:11;2.63;;;2.20;;
19151;SDS011;9708;53.114;9.388;2023-04-24T00:14:38;2.23;;;1.77;;
19151;SDS011;9708;53.114;9.388;2023-04-24T00:17:05;2.00;;;1.90;;
19151;SDS011;9708;53.114;9.388;2023-04-24T00:19:33;2.53;;;2.33;;
19151;SDS011;9708;53.114;9.388;2023-04-24T00:22:00;3.17;;;2.23;;
19151;SDS011;9708;53.114;9.388;2023-04-24T00:24:27;2.87;;;1.87;;
19151;SDS011;9708;53.114;9.388;2023-04-24T00:26:54;1.60;;;1.47;;
19151;SDS011;9708;53.114;9.388;2023-04-24T00:29:21;3.37;;;2.27;;
19151;SDS011;9708;53.114;9.388;2023-04-24T00:31:48;2.20;;;1.67;;
19151;SDS011;9708;53.114;9.388;2023-04-24T00:34:15;2.00;;;1.80;;
19151;SDS011;9708;53.114;9.388;2023-04-24T00:36:43;3.50;;;1.93;;
19151;SDS011;9708;53.114;9.388;2023-04-24T00:39:10;1.90;;;1.40;;
19151;SDS011;9708;53.114;9.388;2023-04-24T00:41:37;1.40;;;1.30;;
19151;SDS011;9708;53.114;9.388;2023-04-24T00:44:03;2.47;;;1.63;;
19151;SDS011;9708;53.114;9.388;2023-04-24T00:46:30;1.60;;;1.50;;
19151;SDS011;9708;53.114;9.388;2023-04-24T00:48:58;18.90;;;2.00;;
19151;SDS011;9708;53.114;9.388;2023-04-24T00:51:25;1.87;;;1.50;;
19151;SDS011;9708;53.114;9.388;2023-04-24T00:53:54;2.43;;;1.87;;
19151;SDS011;9708;53.114;9.388;2023-04-24T00:56:20;1.10;;;1.00;;
19151;SDS011;9708;53.114;9.388;2023-04-24T00:58:48;1.20;;;1.10;;
19151;SDS011;9708;53.114;9.388;2023-04-24T01:01:15;1.47;;;1.20;;
19151;SDS011;9708;53.114;9.388;2023-04-24T01:03:43;1.60;;;1.50;;
19151;SDS011;9708;53.114;9.388;2023-04-24T01:06:10;1.67;;;1.33;;
19151;SDS011;9708;53.114;9.388;2023-04-24T01:08:37;1.07;;;1.07;;
19151;SDS011;9708;53.114;9.388;2023-04-24T01:11:07;0.93;;;0.90;;
19151;SDS011;9708;53.114;9.388;2023-04-24T01:13:34;1.67;;;1.10;;
19151;SDS011;9708;53.114;9.388;2023-04-24T01:16:01;1.33;;;1.23;;
19151;SDS011;9708;53.114;9.388;2023-04-24T01:18:28;1.40;;;1.30;;
19151;SDS011;9708;53.114;9.388;2023-04-24T01:20:56;2.03;;;1.07;;
19151;SDS011;9708;53.114;9.388;2023-04-24T01:23:25;1.57;;;1.10;;
19151;SDS011;9708;53.114;9.388;2023-04-24T01:25:52;7.53;;;1.07;;
19151;SDS011;9708;53.114;9.388;2023-04-24T01:28:19;1.47;;;1.10;;
19151;SDS011;9708;53.114;9.388;2023-04-24T01:30:47;0.70;;;0.70;;
19151;SDS011;9708;53.114;9.388;2023-04-24T01:33:14;1.53;;;1.33;;
19151;SDS011;9708;53.114;9.388;2023-04-24T01:35:41;1.23;;;1.10;;
19151;SDS011;9708;53.114;9.388;2023-04-24T01:38:09;2.20;;;1.10;;
19151;SDS011;9708;53.114;9.388;2023-04-24T01:40:37;1.37;;;1.27;;
19151;SDS011;9708;53.114;9.388;2023-04-24T01:43:04;1.20;;;1.10;;
19151;SDS011;9708;53.114;9.388;2023-04-24T01:45:31;1.47;;;1.20;;
19151;SDS011;9708;53.114;9.388;2023-04-24T01:47:57;1.10;;;1.00;;
19151;SDS011;9708;53.114;9.388;2023-04-24T01:50:26;1.10;;;1.10;;
19151;SDS011;9708;53.114;9.388;2023-04-24T01:52:52;1.47;;;1.37;;
19151;SDS011;9708;53.114;9.388;2023-04-24T01:55:20;1.20;;;1.20;;
19151;SDS011;9708;53.114;9.388;2023-04-24T01:57:48;1.30;;;1.17;;
19151;SDS011;9708;53.114;9.388;2023-04-24T02:00:17;1.00;;;1.00;;
19151;SDS011;9708;53.114;9.388;2023-04-24T02:02:44;1.50;;;1.37;;
19151;SDS011;9708;53.114;9.388;2023-04-24T02:05:11;1.60;;;0.97;;
19151;SDS011;9708;53.114;9.388;2023-04-24T02:07:38;0.90;;;0.90;;
19151;SDS011;9708;53.114;9.388;2023-04-24T02:10:05;6.93;;;1.13;;
19151;SDS011;9708;53.114;9.388;2023-04-24T02:12:33;0.97;;;0.87;;
19151;SDS011;9708;53.114;9.388;2023-04-24T02:15:01;2.37;;;1.40;;
19151;SDS011;9708;53.114;9.388;2023-04-24T02:17:29;0.97;;;0.97;;
19151;SDS011;9708;53.114;9.388;2023-04-24T02:19:56;1.20;;;1.20;;
19151;SDS011;9708;53.114;9.388;2023-04-24T02:22:23;1.37;;;1.03;;
19151;SDS011;9708;53.114;9.388;2023-04-24T02:24:50;1.00;;;0.90;;
19151;SDS011;9708;53.114;9.388;2023-04-24T02:27:16;1.07;;;0.93;;
19151;SDS011;9708;53.114;9.388;2023-04-24T02:29:43;0.80;;;0.80;;
19151;SDS011;9708;53.114;9.388;2023-04-24T02:32:11;1.27;;;1.17;;
19151;SDS011;9708;53.114;9.388;2023-04-24T02:34:40;0.90;;;0.90;;
19151;SDS011;9708;53.114;9.388;2023-04-24T02:37:07;4.40;;;1.33;;
19151;SDS011;9708;53.114;9.388;2023-04-24T02:39:33;1.40;;;1.30;;
19151;SDS011;9708;53.114;9.388;2023-04-24T02:42:00;0.90;;;0.90;;
19151;SDS011;9708;53.114;9.388;2023-04-24T02:44:27;1.07;;;0.97;;
19151;SDS011;9708;53.114;9.388;2023-04-24T02:46:54;1.20;;;1.10;;
19151;SDS011;9708;53.114;9.388;2023-04-24T02:49:22;0.77;;;0.77;;
19151;SDS011;9708;53.114;9.388;2023-04-24T02:51:49;0.93;;;0.83;;
19151;SDS011;9708;53.114;9.388;2023-04-24T02:54:16;0.80;;;0.80;;
19151;SDS011;9708;53.114;9.388;2023-04-24T02:56:42;1.13;;;1.10;;
19151;SDS011;9708;53.114;9.388;2023-04-24T02:59:09;1.00;;;1.00;;
19151;SDS011;9708;53.114;9.388;2023-04-24T03:01:36;0.90;;;0.90;;
19151;SDS011;9708;53.114;9.388;2023-04-24T03:04:03;1.00;;;0.90;;
19151;SDS011;9708;53.114;9.388;2023-04-24T03:06:31;1.10;;;1.00;;
19151;SDS011;9708;53.114;9.388;2023-04-24T03:09:00;1.40;;;1.30;;
19151;SDS011;9708;53.114;9.388;2023-04-24T03:11:27;1.40;;;1.40;;
19151;SDS011;9708;53.114;9.388;2023-04-24T03:13:54;1.07;;;1.03;;
19151;SDS011;9708;53.114;9.388;2023-04-24T03:16:20;1.60;;;1.50;;
19151;SDS011;9708;53.114;9.388;2023-04-24T03:18:47;0.97;;;0.90;;
19151;SDS011;9708;53.114;9.388;2023-04-24T03:21:14;1.13;;;1.03;;
19151;SDS011;9708;53.114;9.388;2023-04-24T03:23:42;1.40;;;1.30;;
19151;SDS011;9708;53.114;9.388;2023-04-24T03:26:09;1.07;;;1.00;;
19151;SDS011;9708;53.114;9.388;2023-04-24T03:28:36;0.90;;;0.90;;
19151;SDS011;9708;53.114;9.388;2023-04-24T03:31:03;0.63;;;0.63;;
19151;SDS011;9708;53.114;9.388;2023-04-24T03:33:29;4.57;;;1.00;;
19151;SDS011;9708;53.114;9.388;2023-04-24T03:35:56;1.10;;;1.00;;
19151;SDS011;9708;53.114;9.388;2023-04-24T03:38:23;0.80;;;0.80;;
19151;SDS011;9708;53.114;9.388;2023-04-24T03:40:51;1.10;;;1.00;;
19151;SDS011;9708;53.114;9.388;2023-04-24T03:43:18;0.97;;;0.97;;
19151;SDS011;9708;53.114;9.388;2023-04-24T03:45:45;0.93;;;0.80;;
19151;SDS011;9708;53.114;9.388;2023-04-24T03:48:11;1.00;;;0.87;;
19151;SDS011;9708;53.114;9.388;2023-04-24T03:50:38;1.57;;;1.00;;
19151;SDS011;9708;53.114;9.388;2023-04-24T03:53:05;0.60;;;0.60;;
19151;SDS011;9708;53.114;9.388;2023-04-24T03:55:32;0.90;;;0.90;;
19151;SDS011;9708;53.114;9.388;2023-04-24T03:58:00;0.97;;;0.97;;
19151;SDS011;9708;53.114;9.388;2023-04-24T04:00:27;2.97;;;0.90;;
19151;SDS011;9708;53.114;9.388;2023-04-24T04:02:53;1.30;;;0.90;;
19151;SDS011;9708;53.114;9.388;2023-04-24T04:05:20;0.97;;;0.90;;
19151;SDS011;9708;53.114;9.388;2023-04-24T04:07:47;0.73;;;0.73;;
19151;SDS011;9708;53.114;9.388;2023-04-24T04:10:14;1.20;;;1.10;;
19151;SDS011;9708;53.114;9.388;2023-04-24T04:12:42;0.80;;;0.80;;
19151;SDS011;9708;53.114;9.388;2023-04-24T04:15:10;0.83;;;0.83;;
19151;SDS011;9708;53.114;9.388;2023-04-24T04:17:37;0.60;;;0.60;;
19151;SDS011;9708;53.114;9.388;2023-04-24T04:20:04;0.70;;;0.70;;
19151;SDS011;9708;53.114;9.388;2023-04-24T04:22:35;0.90;;;0.80;;
19151;SDS011;9708;53.114;9.388;2023-04-24T04:25:02;2.67;;;0.80;;
19151;SDS011;9708;53.114;9.388;2023-04-24T04:27:29;0.80;;;0.80;;
19151;SDS011;9708;53.114;9.388;2023-04-24T04:29:57;0.83;;;0.80;;
19151;SDS011;9708;53.114;9.388;2023-04-24T04:32:27;0.70;;;0.70;;
19151;SDS011;9708;53.114;9.388;2023-04-24T04:34:54;0.50;;;0.50;;
19151;SDS011;9708;53.114;9.388;2023-04-24T04:37:21;0.70;;;0.70;;
19151;SDS011;9708;53.114;9.388;2023-04-24T04:39:47;0.60;;;0.60;;
19151;SDS011;9708;53.114;9.388;2023-04-24T04:42:14;0.60;;;0.60;;
19151;SDS011;9708;53.114;9.388;2023-04-24T04:44:42;0.93;;;0.90;;
19151;SDS011;9708;53.114;9.388;2023-04-24T04:47:09;1.10;;;0.67;;
19151;SDS011;9708;53.114;9.388;2023-04-24T04:49:38;0.90;;;0.90;;
19151;SDS011;9708;53.114;9.388;2023-04-24T04:52:06;1.10;;;0.90;;
19151;SDS011;9708;53.114;9.388;2023-04-24T04:54:33;0.87;;;0.60;;
19151;SDS011;9708;53.114;9.388;2023-04-24T04:56:59;0.73;;;0.73;;
19151;SDS011;9708;53.114;9.388;2023-04-24T04:59:26;0.90;;;0.90;;
19151;SDS011;9708;53.114;9.388;2023-04-24T05:01:53;0.60;;;0.60;;
19151;SDS011;9708;53.114;9.388;2023-04-24T05:04:20;1.10;;;1.00;;
19151;SDS011;9708;53.114;9.388;2023-04-24T05:06:48;0.70;;;0.70;;
19151;SDS011;9708;53.114;9.388;2023-04-24T05:09:16;0.80;;;0.80;;
19151;SDS011;9708;53.114;9.388;2023-04-24T05:11:43;0.80;;;0.70;;
19151;SDS011;9708;53.114;9.388;2023-04-24T05:14:09;1.27;;;0.82;;
19151;SDS011;9708;53.114;9.388;2023-04-24T05:16:37;1.10;;;1.00;;
19151;SDS011;9708;53.114;9.388;2023-04-24T05:19:04;0.68;;;0.68;;
19151;SDS011;9708;53.114;9.388;2023-04-24T05:21:31;6.80;;;3.05;;
19151;SDS011;9708;53.114;9.388;2023-04-24T05:24:00;1.15;;;1.05;;
19151;SDS011;9708;53.114;9.388;2023-04-24T05:26:26;1.13;;;1.02;;
19151;SDS011;9708;53.114;9.388;2023-04-24T05:28:53;1.45;;;0.90;;
19151;SDS011;9708;53.114;9.388;2023-04-24T05:31:20;0.93;;;0.80;;
19151;SDS011;9708;53.114;9.388;2023-04-24T05:33:47;0.93;;;0.93;;
19151;SDS011;9708;53.114;9.388;2023-04-24T05:36:14;0.77;;;0.77;;
19151;SDS011;9708;53.114;9.388;2023-04-24T05:38:40;1.42;;;1.10;;
19151;SDS011;9708;53.114;9.388;2023-04-24T05:41:08;2.00;;;1.10;;
19151;SDS011;9708;53.114;9.388;2023-04-24T05:43:35;0.90;;;0.90;;
19151;SDS011;9708;53.114;9.388;2023-04-24T05:46:02;0.93;;;0.93;;
19151;SDS011;9708;53.114;9.388;2023-04-24T05:48:29;4.05;;;2.38;;
19151;SDS011;9708;53.114;9.388;2023-04-24T05:50:56;1.30;;;1.20;;
19151;SDS011;9708;53.114;9.388;2023-04-24T05:53:22;1.10;;;1.00;;
19151;SDS011;9708;53.114;9.388;2023-04-24T05:55:49;1.10;;;1.10;;
19151;SDS011;9708;53.114;9.388;2023-04-24T05:58:17;1.20;;;1.10;;
19151;SDS011;9708;53.114;9.388;2023-04-24T06:00:44;1.23;;;1.13;;
19151;SDS011;9708;53.114;9.388;2023-04-24T06:03:11;2.30;;;1.45;;
19151;SDS011;9708;53.114;9.388;2023-04-24T06:05:38;1.10;;;1.10;;
19151;SDS011;9708;53.114;9.388;2023-04-24T06:08:05;2.20;;;1.30;;
19151;SDS011;9708;53.114;9.388;2023-04-24T06:10:32;1.63;;;1.52;;
19151;SDS011;9708;53.114;9.388;2023-04-24T06:12:59;1.88;;;1.50;;
19151;SDS011;9708;53.114;9.388;2023-04-24T06:15:28;1.90;;;1.58;;
19151;SDS011;9708;53.114;9.388;2023-04-24T06:17:56;3.08;;;2.38;;
19151;SDS011;9708;53.114;9.388;2023-04-24T06:20:23;2.22;;;1.45;;
19151;SDS011;9708;53.114;9.388;2023-04-24T06:22:50;1.58;;;1.48;;
19151;SDS011;9708;53.114;9.388;2023-04-24T06:25:17;2.10;;;1.85;;
19151;SDS011;9708;53.114;9.388;2023-04-24T06:27:44;2.08;;;1.90;;
19151;SDS011;9708;53.114;9.388;2023-04-24T06:30:11;1.95;;;1.77;;
19151;SDS011;9708;53.114;9.388;2023-04-24T06:32:39;2.03;;;1.83;;
19151;SDS011;9708;53.114;9.388;2023-04-24T06:35:07;3.67;;;2.80;;
19151;SDS011;9708;53.114;9.388;2023-04-24T06:37:34;1.90;;;1.67;;
19151;SDS011;9708;53.114;9.388;2023-04-24T06:40:01;2.30;;;2.00;;
19151;SDS011;9708;53.114;9.388;2023-04-24T06:42:28;2.70;;;2.15;;
19151;SDS011;9708;53.114;9.388;2023-04-24T06:44:55;3.80;;;2.15;;
19151;SDS011;9708;53.114;9.388;2023-04-24T06:47:22;2.15;;;1.95;;
19151;SDS011;9708;53.114;9.388;2023-04-24T06:49:50;2.13;;;1.90;;
19151;SDS011;9708;53.114;9.388;2023-04-24T06:52:17;2.40;;;2.20;;
19151;SDS011;9708;53.114;9.388;2023-04-24T06:54:44;3.22;;;1.73;;
19151;SDS011;9708;53.114;9.388;2023-04-24T06:57:11;2.38;;;2.00;;
19151;SDS011;9708;53.114;9.388;2023-04-24T06:59:38;2.83;;;2.20;;
19151;SDS011;9708;53.114;9.388;2023-04-24T07:02:05;5.18;;;2.30;;
19151;SDS011;9708;53.114;9.388;2023-04-24T07:04:31;2.92;;;2.60;;
19151;SDS011;9708;53.114;9.388;2023-04-24T07:06:59;3.13;;;2.42;;
19151;SDS011;9708;53.114;9.388;2023-04-24T07:09:27;2.30;;;2.10;;
19151;SDS011;9708;53.114;9.388;2023-04-24T07:11:54;4.28;;;2.90;;
19151;SDS011;9708;53.114;9.388;2023-04-24T07:14:21;3.08;;;2.42;;
19151;SDS011;9708;53.114;9.388;2023-04-24T07:16:48;2.63;;;2.30;;
19151;SDS011;9708;53.114;9.388;2023-04-24T07:19:15;3.03;;;2.72;;
19151;SDS011;9708;53.114;9.388;2023-04-24T07:21:42;3.10;;;2.63;;
19151;SDS011;9708;53.114;9.388;2023-04-24T07:24:10;3.20;;;2.90;;
19151;SDS011;9708;53.114;9.388;2023-04-24T07:26:38;4.23;;;2.97;;
19151;SDS011;9708;53.114;9.388;2023-04-24T07:29:05;4.28;;;2.85;;
19151;SDS011;9708;53.114;9.388;2023-04-24T07:31:32;4.55;;;3.08;;
19151;SDS011;9708;53.114;9.388;2023-04-24T07:33:59;4.30;;;3.87;;
19151;SDS011;9708;53.114;9.388;2023-04-24T07:36:25;3.47;;;2.55;;
19151;SDS011;9708;53.114;9.388;2023-04-24T07:38:53;3.58;;;2.88;;
19151;SDS011;9708;53.114;9.388;2023-04-24T07:41:22;6.10;;;3.92;;
19151;SDS011;9708;53.114;9.388;2023-04-24T07:43:49;11.43;;;5.90;;
19151;SDS011;9708;53.114;9.388;2023-04-24T07:46:16;8.50;;;4.43;;
19151;SDS011;9708;53.114;9.388;2023-04-24T07:48:43;3.78;;;2.78;;
19151;SDS011;9708;53.114;9.388;2023-04-24T07:51:11;7.40;;;4.35;;
19151;SDS011;9708;53.114;9.388;2023-04-24T07:53:38;3.00;;;2.67;;
19151;SDS011;9708;53.114;9.388;2023-04-24T07:56:05;4.40;;;3.33;;
19151;SDS011;9708;53.114;9.388;2023-04-24T07:58:33;5.03;;;3.28;;
19151;SDS011;9708;53.114;9.388;2023-04-24T08:01:00;4.40;;;2.85;;
19151;SDS011;9708;53.114;9.388;2023-04-24T08:03:27;4.78;;;3.80;;
19151;SDS011;9708;53.114;9.388;2023-04-24T08:05:54;5.35;;;3.63;;
19151;SDS011;9708;53.114;9.388;2023-04-24T08:08:21;18.45;;;9.07;;
19151;SDS011;9708;53.114;9.388;2023-04-24T08:10:49;5.25;;;3.78;;
19151;SDS011;9708;53.114;9.388;2023-04-24T08:13:16;7.18;;;3.67;;
19151;SDS011;9708;53.114;9.388;2023-04-24T08:15:44;3.78;;;2.90;;
19151;SDS011;9708;53.114;9.388;2023-04-24T08:18:11;6.80;;;4.22;;
19151;SDS011;9708;53.114;9.388;2023-04-24T08:20:38;4.67;;;3.23;;
19151;SDS011;9708;53.114;9.388;2023-04-24T08:23:05;4.22;;;2.90;;
19151;SDS011;9708;53.114;9.388;2023-04-24T08:25:32;6.90;;;3.17;;
19151;SDS011;9708;53.114;9.388;2023-04-24T08:28:00;3.35;;;2.92;;
19151;SDS011;9708;53.114;9.388;2023-04-24T08:30:28;5.15;;;3.78;;
19151;SDS011;9708;53.114;9.388;2023-04-24T08:32:56;6.07;;;3.88;;
19151;SDS011;9708;53.114;9.388;2023-04-24T08:35:23;5.10;;;3.83;;
19151;SDS011;9708;53.114;9.388;2023-04-24T08:37:51;9.18;;;4.30;;
19151;SDS011;9708;53.114;9.388;2023-04-24T08:40:18;9.65;;;4.05;;
19151;SDS011;9708;53.114;9.388;2023-04-24T08:42:50;4.90;;;3.67;;
19151;SDS011;9708;53.114;9.388;2023-04-24T08:45:20;6.03;;;3.67;;
19151;SDS011;9708;53.114;9.388;2023-04-24T08:47:47;7.27;;;4.27;;
19151;SDS011;9708;53.114;9.388;2023-04-24T08:50:16;5.30;;;3.77;;
19151;SDS011;9708;53.114;9.388;2023-04-24T08:52:43;8.37;;;4.77;;
19151;SDS011;9708;53.114;9.388;2023-04-24T08:55:10;7.73;;;4.10;;
19151;SDS011;9708;53.114;9.388;2023-04-24T08:57:37;6.20;;;4.17;;
19151;SDS011;9708;53.114;9.388;2023-04-24T09:00:05;8.80;;;4.83;;
19151;SDS011;9708;53.114;9.388;2023-04-24T09:02:33;8.90;;;4.77;;
19151;SDS011;9708;53.114;9.388;2023-04-24T09:05:00;10.27;;;4.83;;
19151;SDS011;9708;53.114;9.388;2023-04-24T09:07:30;7.53;;;4.60;;
19151;SDS011;9708;53.114;9.388;2023-04-24T09:10:02;9.27;;;4.30;;
19151;SDS011;9708;53.114;9.388;2023-04-24T09:12:29;8.27;;;4.23;;
19151;SDS011;9708;53.114;9.388;2023-04-24T09:14:56;8.57;;;5.07;;
19151;SDS011;9708;53.114;9.388;2023-04-24T09:17:24;9.63;;;4.63;;
19151;SDS011;9708;53.114;9.388;2023-04-24T09:19:53;6.90;;;4.93;;
19151;SDS011;9708;53.114;9.388;2023-04-24T09:22:20;12.13;;;4.63;;
19151;SDS011;9708;53.114;9.388;2023-04-24T09:24:49;9.90;;;5.47;;
19151;SDS011;9708;53.114;9.388;2023-04-24T09:27:28;8.70;;;4.17;;
19151;SDS011;9708;53.114;9.388;2023-04-24T09:29:54;9.93;;;3.97;;
19151;SDS011;9708;53.114;9.388;2023-04-24T09:32:22;6.80;;;4.80;;
19151;SDS011;9708;53.114;9.388;2023-04-24T09:35:04;10.50;;;5.10;;
19151;SDS011;9708;53.114;9.388;2023-04-24T09:37:34;9.97;;;5.60;;
19151;SDS011;9708;53.114;9.388;2023-04-24T09:40:11;9.30;;;4.97;;
19151;SDS011;9708;53.114;9.388;2023-04-24T09:42:45;6.17;;;4.57;;
19151;SDS011;9708;53.114;9.388;2023-04-24T09:45:12;7.97;;;5.07;;
19151;SDS011;9708;53.114;9.388;2023-04-24T09:47:40;6.77;;;4.83;;
19151;SDS011;9708;53.114;9.388;2023-04-24T09:50:10;9.83;;;4.90;;
19151;SDS011;9708;53.114;9.388;2023-04-24T09:52:42;7.07;;;4.73;;
19151;SDS011;9708;53.114;9.388;2023-04-24T09:55:18;7.53;;;4.87;;
19151;SDS011;9708;53.114;9.388;2023-04-24T09:57:47;6.23;;;4.73;;
19151;SDS011;9708;53.114;9.388;2023-04-24T10:00:17;7.80;;;4.80;;
19151;SDS011;9708;53.114;9.388;2023-04-24T10:02:45;9.07;;;5.23;;
19151;SDS011;9708;53.114;9.388;2023-04-24T10:05:16;9.80;;;4.33;;
19151;SDS011;9708;53.114;9.388;2023-04-24T10:07:43;8.20;;;4.63;;
19151;SDS011;9708;53.114;9.388;2023-04-24T10:10:11;7.53;;;4.85;;
19151;SDS011;9708;53.114;9.388;2023-04-24T10:12:39;5.40;;;4.30;;
19151;SDS011;9708;53.114;9.388;2023-04-24T10:15:07;7.38;;;4.38;;
19151;SDS011;9708;53.114;9.388;2023-04-24T10:17:37;5.00;;;3.63;;
19151;SDS011;9708;53.114;9.388;2023-04-24T10:20:05;6.07;;;3.60;;
19151;SDS011;9708;53.114;9.388;2023-04-24T10:22:33;5.23;;;3.83;;
19151;SDS011;9708;53.114;9.388;2023-04-24T10:27:31;4.17;;;3.13;;
19151;SDS011;9708;53.114;9.388;2023-04-24T10:30:00;4.80;;;3.47;;
19151;SDS011;9708;53.114;9.388;2023-04-24T10:32:27;4.00;;;3.25;;
19151;SDS011;9708;53.114;9.388;2023-04-24T10:34:55;3.23;;;2.93;;
19151;SDS011;9708;53.114;9.388;2023-04-24T10:37:22;13.20;;;4.87;;
19151;SDS011;9708;53.114;9.388;2023-04-24T10:39:50;3.50;;;3.03;;
19151;SDS011;9708;53.114;9.388;2023-04-24T10:42:19;7.47;;;3.60;;
19151;SDS011;9708;53.114;9.388;2023-04-24T10:44:47;7.97;;;3.30;;
19151;SDS011;9708;53.114;9.388;2023-04-24T10:47:16;5.20;;;3.10;;
19151;SDS011;9708;53.114;9.388;2023-04-24T10:49:43;5.03;;;4.00;;
19151;SDS011;9708;53.114;9.388;2023-04-24T10:52:09;4.50;;;3.07;;
19151;SDS011;9708;53.114;9.388;2023-04-24T10:54:41;4.00;;;3.00;;
19151;SDS011;9708;53.114;9.388;2023-04-24T10:57:27;7.17;;;3.67;;
19151;SDS011;9708;53.114;9.388;2023-04-24T11:02:45;7.73;;;3.97;;
19151;SDS011;9708;53.114;9.388;2023-04-24T11:05:15;8.80;;;4.80;;
19151;SDS011;9708;53.114;9.388;2023-04-24T11:10:38;6.53;;;3.90;;
19151;SDS011;9708;53.114;9.388;2023-04-24T11:13:06;3.33;;;2.87;;
19151;SDS011;9708;53.114;9.388;2023-04-24T11:15:33;12.17;;;4.90;;
19151;SDS011;9708;53.114;9.388;2023-04-24T11:18:01;10.50;;;5.50;;
19151;SDS011;9708;53.114;9.388;2023-04-24T11:20:28;4.90;;;2.97;;
19151;SDS011;9708;53.114;9.388;2023-04-24T11:22:55;9.23;;;3.83;;
19151;SDS011;9708;53.114;9.388;2023-04-24T11:25:30;2.97;;;2.43;;
19151;SDS011;9708;53.114;9.388;2023-04-24T11:28:02;5.33;;;3.57;;
19151;SDS011;9708;53.114;9.388;2023-04-24T11:30:31;4.23;;;2.53;;
19151;SDS011;9708;53.114;9.388;2023-04-24T11:33:03;3.07;;;2.73;;
19151;SDS011;9708;53.114;9.388;2023-04-24T11:35:34;2.97;;;2.50;;
19151;SDS011;9708;53.114;9.388;2023-04-24T11:38:03;3.90;;;2.17;;
19151;SDS011;9708;53.114;9.388;2023-04-24T11:40:31;3.33;;;2.77;;
19151;SDS011;9708;53.114;9.388;2023-04-24T11:42:59;3.30;;;2.47;;
19151;SDS011;9708;53.114;9.388;2023-04-24T11:45:27;2.67;;;2.40;;
19151;SDS011;9708;53.114;9.388;2023-04-24T11:47:54;3.97;;;2.27;;
19151;SDS011;9708;53.114;9.388;2023-04-24T11:50:23;1.97;;;1.87;;
19151;SDS011;9708;53.114;9.388;2023-04-24T11:52:51;3.27;;;2.53;;
19151;SDS011;9708;53.114;9.388;2023-04-24T11:55:25;3.47;;;2.73;;
19151;SDS011;9708;53.114;9.388;2023-04-24T11:57:54;4.77;;;2.60;;
19151;SDS011;9708;53.114;9.388;2023-04-24T12:00:23;3.90;;;2.87;;
19151;SDS011;9708;53.114;9.388;2023-04-24T12:02:51;3.40;;;2.50;;
19151;SDS011;9708;53.114;9.388;2023-04-24T12:05:30;4.97;;;3.03;;
19151;SDS011;9708;53.114;9.388;2023-04-24T12:07:56;4.50;;;2.77;;
19151;SDS011;9708;53.114;9.388;2023-04-24T12:10:24;2.70;;;2.47;;
19151;SDS011;9708;53.114;9.388;2023-04-24T12:12:52;2.83;;;2.27;;
19151;SDS011;9708;53.114;9.388;2023-04-24T12:15:20;2.97;;;2.67;;
19151;SDS011;9708;53.114;9.388;2023-04-24T12:17:47;2.67;;;2.47;;
19151;SDS011;9708;53.114;9.388;2023-04-24T12:20:16;14.53;;;7.13;;
19151;SDS011;9708;53.114;9.388;2023-04-24T12:22:51;12.83;;;5.97;;
19151;SDS011;9708;53.114;9.388;2023-04-24T12:25:20;2.97;;;2.40;;
19151;SDS011;9708;53.114;9.388;2023-04-24T12:27:52;2.17;;;1.97;;
19151;SDS011;9708;53.114;9.388;2023-04-24T12:30:19;3.47;;;3.03;;
19151;SDS011;9708;53.114;9.388;2023-04-24T12:32:47;3.13;;;2.53;;
19151;SDS011;9708;53.114;9.388;2023-04-24T12:35:18;3.50;;;3.20;;
19151;SDS011;9708;53.114;9.388;2023-04-24T12:37:46;2.70;;;2.43;;
19151;SDS011;9708;53.114;9.388;2023-04-24T12:40:15;2.73;;;2.53;;
19151;SDS011;9708;53.114;9.388;2023-04-24T12:42:43;4.90;;;3.17;;
19151;SDS011;9708;53.114;9.388;2023-04-24T12:45:12;4.30;;;2.80;;
19151;SDS011;9708;53.114;9.388;2023-04-24T12:47:39;3.03;;;2.13;;
19151;SDS011;9708;53.114;9.388;2023-04-24T12:50:07;2.93;;;2.00;;
19151;SDS011;9708;53.114;9.388;2023-04-24T12:52:34;3.17;;;2.10;;
19151;SDS011;9708;53.114;9.388;2023-04-24T12:55:02;2.50;;;2.23;;
19151;SDS011;9708;53.114;9.388;2023-04-24T12:57:31;2.10;;;1.90;;
19151;SDS011;9708;53.114;9.388;2023-04-24T12:59:58;1.83;;;1.73;;
19151;SDS011;9708;53.114;9.388;2023-04-24T13:02:26;2.50;;;2.03;;
19151;SDS011;9708;53.114;9.388;2023-04-24T13:04:55;2.10;;;2.00;;
19151;SDS011;9708;53.114;9.388;2023-04-24T13:07:22;1.83;;;1.70;;
19151;SDS011;9708;53.114;9.388;2023-04-24T13:09:49;2.23;;;1.50;;
19151;SDS011;9708;53.114;9.388;2023-04-24T13:12:16;3.57;;;1.70;;
19151;SDS011;9708;53.114;9.388;2023-04-24T13:14:45;2.47;;;1.57;;
19151;SDS011;9708;53.114;9.388;2023-04-24T13:17:13;1.70;;;1.60;;
19151;SDS011;9708;53.114;9.388;2023-04-24T13:19:41;1.43;;;1.33;;
19151;SDS011;9708;53.114;9.388;2023-04-24T13:22:09;1.23;;;1.13;;
19151;SDS011;9708;53.114;9.388;2023-04-24T13:24:38;1.30;;;1.20;;
19151;SDS011;9708;53.114;9.388;2023-04-24T13:27:05;1.30;;;1.20;;
19151;SDS011;9708;53.114;9.388;2023-04-24T13:29:33;1.40;;;1.30;;
19151;SDS011;9708;53.114;9.388;2023-04-24T13:32:01;1.20;;;1.00;;
19151;SDS011;9708;53.114;9.388;2023-04-24T13:34:28;1.07;;;1.07;;
19151;SDS011;9708;53.114;9.388;2023-04-24T13:36:56;1.23;;;0.83;;
19151;SDS011;9708;53.114;9.388;2023-04-24T13:39:24;0.97;;;0.97;;
19151;SDS011;9708;53.114;9.388;2023-04-24T13:41:51;4.53;;;1.10;;
19151;SDS011;9708;53.114;9.388;2023-04-24T13:44:19;1.30;;;1.20;;
19151;SDS011;9708;53.114;9.388;2023-04-24T13:46:47;1.13;;;1.03;;
19151;SDS011;9708;53.114;9.388;2023-04-24T13:49:17;1.13;;;1.03;;
19151;SDS011;9708;53.114;9.388;2023-04-24T13:51:44;1.30;;;1.20;;
19151;SDS011;9708;53.114;9.388;2023-04-24T13:54:11;1.53;;;1.20;;
19151;SDS011;9708;53.114;9.388;2023-04-24T13:56:38;1.97;;;1.30;;
19151;SDS011;9708;53.114;9.388;2023-04-24T13:59:05;1.03;;;0.93;;
19151;SDS011;9708;53.114;9.388;2023-04-24T14:01:32;3.30;;;1.90;;
19151;SDS011;9708;53.114;9.388;2023-04-24T14:03:59;3.03;;;1.37;;
19151;SDS011;9708;53.114;9.388;2023-04-24T14:06:27;1.83;;;1.60;;
19151;SDS011;9708;53.114;9.388;2023-04-24T14:08:54;1.40;;;1.30;;
19151;SDS011;9708;53.114;9.388;2023-04-24T14:11:21;2.10;;;1.50;;
19151;SDS011;9708;53.114;9.388;2023-04-24T14:13:48;2.97;;;1.93;;
19151;SDS011;9708;53.114;9.388;2023-04-24T14:16:15;2.97;;;2.00;;
19151;SDS011;9708;53.114;9.388;2023-04-24T14:18:42;6.13;;;2.60;;
19151;SDS011;9708;53.114;9.388;2023-04-24T14:21:08;2.90;;;1.43;;
19151;SDS011;9708;53.114;9.388;2023-04-24T14:23:37;2.80;;;2.47;;
19151;SDS011;9708;53.114;9.388;2023-04-24T14:26:03;2.80;;;2.03;;
19151;SDS011;9708;53.114;9.388;2023-04-24T14:28:30;4.87;;;2.40;;
19151;SDS011;9708;53.114;9.388;2023-04-24T14:30:57;2.40;;;1.90;;
19151;SDS011;9708;53.114;9.388;2023-04-24T14:33:24;5.77;;;2.27;;
19151;SDS011;9708;53.114;9.388;2023-04-24T14:35:51;4.70;;;3.00;;
19151;SDS011;9708;53.114;9.388;2023-04-24T14:38:18;4.23;;;2.53;;
19151;SDS011;9708;53.114;9.388;2023-04-24T14:40:46;7.80;;;2.97;;
19151;SDS011;9708;53.114;9.388;2023-04-24T14:43:13;1.80;;;1.70;;
19151;SDS011;9708;53.114;9.388;2023-04-24T14:45:39;3.40;;;2.20;;
19151;SDS011;9708;53.114;9.388;2023-04-24T14:48:06;2.73;;;2.17;;
19151;SDS011;9708;53.114;9.388;2023-04-24T14:50:34;2.03;;;1.93;;
19151;SDS011;9708;53.114;9.388;2023-04-24T14:53:02;3.10;;;2.30;;
19151;SDS011;9708;53.114;9.388;2023-04-24T14:55:29;4.97;;;2.20;;
19151;SDS011;9708;53.114;9.388;2023-04-24T14:57:58;2.20;;;2.00;;
19151;SDS011;9708;53.114;9.388;2023-04-24T15:00:25;2.27;;;1.90;;
19151;SDS011;9708;53.114;9.388;2023-04-24T15:02:52;5.60;;;1.97;;
19151;SDS011;9708;53.114;9.388;2023-04-24T15:05:20;3.43;;;2.63;;
19151;SDS011;9708;53.114;9.388;2023-04-24T15:07:47;3.77;;;2.43;;
19151;SDS011;9708;53.114;9.388;2023-04-24T15:10:14;2.63;;;2.43;;
19151;SDS011;9708;53.114;9.388;2023-04-24T15:12:42;7.00;;;2.50;;